Airport ID:KRTS
Update Time (UTC):13/08/2022 12:39
Wind Speed (Knots):3
Wind Direction (Magnetic):360
Temperature (°C):11
Dew Point (°C):-6
Humidity (%):31
Altimeter (inHg):30.23
Density Altitude (Feet):
Visibility:10+
Clouds (Hundreds of feet):CLR
Present Weather:
METAR:METAR KRTS 131235Z AUTO 00000KT 10SM CLR 11/M05 A3023 RMK AO2

The data displayed is for advisory purposes only and is not to be used for flight planning or operations.